Terminal Aerodrome Forecast
Issued by NWS

Home | Current Version | Previous Version | Text Only | Print | Product List | Glossary On
Versions: 1 2 3 4 5 6 7 8 9 10 11 12 13 14 15 16 17 18 19
000
FTUS46 KSEW 251434 AAA
TAFOLM
TAF AMD
KOLM 251434Z 2515/2612 20004KT P6SM OVC090
      TEMPO 2515/2518 -RA
     FM251800 20004KT P6SM -RA SCT022 OVC050
     FM252100 24004KT P6SM VCSH BKN030 OVC050
     FM260300 20003KT P6SM BKN020 OVC040=

USA.gov is the U.S. government's official web portal to all federal, state and local government web resources and services.